sensor_id;sensor_type;location;lat;lon;timestamp;temperature;humidity
22035;DHT22;11181;51.002;4.356;2022-08-14T00:01:45;27.10;64.30
22035;DHT22;11181;51.002;4.356;2022-08-14T00:04:12;27.10;64.30
22035;DHT22;11181;51.002;4.356;2022-08-14T00:06:39;27.00;64.50
22035;DHT22;11181;51.002;4.356;2022-08-14T00:09:06;26.90;64.60
22035;DHT22;11181;51.002;4.356;2022-08-14T00:11:33;26.90;65.20
22035;DHT22;11181;51.002;4.356;2022-08-14T00:14:00;26.80;65.70
22035;DHT22;11181;51.002;4.356;2022-08-14T00:16:28;26.60;65.90
22035;DHT22;11181;51.002;4.356;2022-08-14T00:18:58;26.50;66.10
22035;DHT22;11181;51.002;4.356;2022-08-14T00:21:25;26.50;66.40
22035;DHT22;11181;51.002;4.356;2022-08-14T00:23:52;26.40;66.40
22035;DHT22;11181;51.002;4.356;2022-08-14T00:26:21;26.30;66.70
22035;DHT22;11181;51.002;4.356;2022-08-14T00:28:48;26.30;67.80
22035;DHT22;11181;51.002;4.356;2022-08-14T00:31:15;26.30;67.20
22035;DHT22;11181;51.002;4.356;2022-08-14T00:33:42;26.20;67.50
22035;DHT22;11181;51.002;4.356;2022-08-14T00:36:11;26.10;67.60
22035;DHT22;11181;51.002;4.356;2022-08-14T00:38:38;26.00;67.70
22035;DHT22;11181;51.002;4.356;2022-08-14T00:41:06;26.00;68.00
22035;DHT22;11181;51.002;4.356;2022-08-14T00:43:34;26.00;68.30
22035;DHT22;11181;51.002;4.356;2022-08-14T00:46:03;25.60;69.70
22035;DHT22;11181;51.002;4.356;2022-08-14T00:48:32;25.20;70.70
22035;DHT22;11181;51.002;4.356;2022-08-14T00:50:59;25.00;71.50
22035;DHT22;11181;51.002;4.356;2022-08-14T00:53:27;25.00;71.80
22035;DHT22;11181;51.002;4.356;2022-08-14T00:55:56;24.90;71.90
22035;DHT22;11181;51.002;4.356;2022-08-14T00:58:23;24.70;72.30
22035;DHT22;11181;51.002;4.356;2022-08-14T01:00:56;24.40;73.50
22035;DHT22;11181;51.002;4.356;2022-08-14T01:03:24;24.50;73.00
22035;DHT22;11181;51.002;4.356;2022-08-14T01:05:52;24.70;72.60
22035;DHT22;11181;51.002;4.356;2022-08-14T01:08:20;24.90;72.40
22035;DHT22;11181;51.002;4.356;2022-08-14T01:10:49;25.00;72.20
22035;DHT22;11181;51.002;4.356;2022-08-14T01:13:19;25.10;71.60
22035;DHT22;11181;51.002;4.356;2022-08-14T01:15:49;25.20;71.40
22035;DHT22;11181;51.002;4.356;2022-08-14T01:18:18;25.30;71.90
22035;DHT22;11181;51.002;4.356;2022-08-14T01:21:03;25.40;71.00
22035;DHT22;11181;51.002;4.356;2022-08-14T01:23:34;25.30;71.50
22035;DHT22;11181;51.002;4.356;2022-08-14T01:26:02;25.20;71.70
22035;DHT22;11181;51.002;4.356;2022-08-14T01:28:30;25.30;71.80
22035;DHT22;11181;51.002;4.356;2022-08-14T01:31:05;25.30;71.70
22035;DHT22;11181;51.002;4.356;2022-08-14T01:33:34;25.40;71.50
22035;DHT22;11181;51.002;4.356;2022-08-14T01:36:07;25.50;71.50
22035;DHT22;11181;51.002;4.356;2022-08-14T01:38:38;25.50;71.70
22035;DHT22;11181;51.002;4.356;2022-08-14T01:41:08;25.50;71.90
22035;DHT22;11181;51.002;4.356;2022-08-14T01:43:43;25.40;71.90
22035;DHT22;11181;51.002;4.356;2022-08-14T01:46:10;25.50;71.90
22035;DHT22;11181;51.002;4.356;2022-08-14T01:48:38;25.50;71.90
22035;DHT22;11181;51.002;4.356;2022-08-14T01:51:09;25.40;72.30
22035;DHT22;11181;51.002;4.356;2022-08-14T01:53:39;25.40;72.70
22035;DHT22;11181;51.002;4.356;2022-08-14T01:56:06;25.30;72.80
22035;DHT22;11181;51.002;4.356;2022-08-14T01:58:33;25.30;73.30
22035;DHT22;11181;51.002;4.356;2022-08-14T02:01:00;25.20;73.70
22035;DHT22;11181;51.002;4.356;2022-08-14T02:03:31;25.20;73.90
22035;DHT22;11181;51.002;4.356;2022-08-14T02:06:00;25.10;74.40
22035;DHT22;11181;51.002;4.356;2022-08-14T02:08:28;25.10;74.90
22035;DHT22;11181;51.002;4.356;2022-08-14T02:10:58;25.00;75.10
22035;DHT22;11181;51.002;4.356;2022-08-14T02:13:44;24.90;75.40
22035;DHT22;11181;51.002;4.356;2022-08-14T02:16:11;24.80;75.60
22035;DHT22;11181;51.002;4.356;2022-08-14T02:18:41;24.70;75.90
22035;DHT22;11181;51.002;4.356;2022-08-14T02:21:08;24.70;76.50
22035;DHT22;11181;51.002;4.356;2022-08-14T02:23:37;24.60;77.00
22035;DHT22;11181;51.002;4.356;2022-08-14T02:26:18;24.50;77.20
22035;DHT22;11181;51.002;4.356;2022-08-14T02:28:48;24.50;77.50
22035;DHT22;11181;51.002;4.356;2022-08-14T02:31:16;24.40;78.00
22035;DHT22;11181;51.002;4.356;2022-08-14T02:33:43;24.40;78.60
22035;DHT22;11181;51.002;4.356;2022-08-14T02:36:12;24.30;78.70
22035;DHT22;11181;51.002;4.356;2022-08-14T02:38:41;24.30;79.00
22035;DHT22;11181;51.002;4.356;2022-08-14T02:41:10;24.30;79.40
22035;DHT22;11181;51.002;4.356;2022-08-14T02:43:39;24.30;79.90
22035;DHT22;11181;51.002;4.356;2022-08-14T02:46:07;24.20;79.80
22035;DHT22;11181;51.002;4.356;2022-08-14T02:48:36;24.20;80.10
22035;DHT22;11181;51.002;4.356;2022-08-14T02:51:06;24.20;80.40
22035;DHT22;11181;51.002;4.356;2022-08-14T02:53:33;24.20;80.60
22035;DHT22;11181;51.002;4.356;2022-08-14T02:56:00;24.10;80.90
22035;DHT22;11181;51.002;4.356;2022-08-14T02:58:29;24.10;81.30
22035;DHT22;11181;51.002;4.356;2022-08-14T03:00:57;24.00;83.00
22035;DHT22;11181;51.002;4.356;2022-08-14T03:03:25;23.90;83.00
22035;DHT22;11181;51.002;4.356;2022-08-14T03:05:52;23.90;83.60
22035;DHT22;11181;51.002;4.356;2022-08-14T03:08:20;23.90;84.10
22035;DHT22;11181;51.002;4.356;2022-08-14T03:10:47;23.80;84.20
22035;DHT22;11181;51.002;4.356;2022-08-14T03:13:15;23.80;84.40
22035;DHT22;11181;51.002;4.356;2022-08-14T03:15:41;23.70;85.30
22035;DHT22;11181;51.002;4.356;2022-08-14T03:18:13;23.70;86.70
22035;DHT22;11181;51.002;4.356;2022-08-14T03:20:40;23.60;88.00
22035;DHT22;11181;51.002;4.356;2022-08-14T03:23:07;23.50;88.10
22035;DHT22;11181;51.002;4.356;2022-08-14T03:25:34;23.50;88.20
22035;DHT22;11181;51.002;4.356;2022-08-14T03:28:03;23.40;89.60
22035;DHT22;11181;51.002;4.356;2022-08-14T03:30:32;23.40;90.60
22035;DHT22;11181;51.002;4.356;2022-08-14T03:33:00;23.30;91.10
22035;DHT22;11181;51.002;4.356;2022-08-14T03:35:29;23.40;91.50
22035;DHT22;11181;51.002;4.356;2022-08-14T03:38:04;23.40;91.20
22035;DHT22;11181;51.002;4.356;2022-08-14T03:40:34;23.20;91.70
22035;DHT22;11181;51.002;4.356;2022-08-14T03:43:03;23.30;92.70
22035;DHT22;11181;51.002;4.356;2022-08-14T03:45:30;23.20;93.70
22035;DHT22;11181;51.002;4.356;2022-08-14T03:47:58;23.20;94.40
22035;DHT22;11181;51.002;4.356;2022-08-14T03:50:26;23.20;95.30
22035;DHT22;11181;51.002;4.356;2022-08-14T03:52:55;23.20;95.30
22035;DHT22;11181;51.002;4.356;2022-08-14T03:55:22;23.20;95.30
22035;DHT22;11181;51.002;4.356;2022-08-14T03:57:49;23.20;95.00
22035;DHT22;11181;51.002;4.356;2022-08-14T04:00:16;23.20;94.90
22035;DHT22;11181;51.002;4.356;2022-08-14T04:02:43;23.00;95.10
22035;DHT22;11181;51.002;4.356;2022-08-14T04:05:10;22.90;95.20
22035;DHT22;11181;51.002;4.356;2022-08-14T04:07:37;22.80;95.20
22035;DHT22;11181;51.002;4.356;2022-08-14T04:10:07;22.90;95.20
22035;DHT22;11181;51.002;4.356;2022-08-14T04:12:34;23.00;95.00
22035;DHT22;11181;51.002;4.356;2022-08-14T04:15:02;23.00;95.20
22035;DHT22;11181;51.002;4.356;2022-08-14T04:17:30;23.00;95.20
22035;DHT22;11181;51.002;4.356;2022-08-14T04:19:58;22.90;95.20
22035;DHT22;11181;51.002;4.356;2022-08-14T04:22:28;22.80;95.60
22035;DHT22;11181;51.002;4.356;2022-08-14T04:24:56;22.70;96.30
22035;DHT22;11181;51.002;4.356;2022-08-14T04:27:25;22.70;96.40
22035;DHT22;11181;51.002;4.356;2022-08-14T04:29:53;22.60;96.80
22035;DHT22;11181;51.002;4.356;2022-08-14T04:32:22;22.50;97.50
22035;DHT22;11181;51.002;4.356;2022-08-14T04:34:51;22.50;98.00
22035;DHT22;11181;51.002;4.356;2022-08-14T04:37:20;22.60;98.10
22035;DHT22;11181;51.002;4.356;2022-08-14T04:40:06;22.80;98.00
22035;DHT22;11181;51.002;4.356;2022-08-14T04:42:52;22.90;97.40
22035;DHT22;11181;51.002;4.356;2022-08-14T04:45:36;22.90;97.40
22035;DHT22;11181;51.002;4.356;2022-08-14T04:48:05;23.00;96.80
22035;DHT22;11181;51.002;4.356;2022-08-14T04:50:41;23.00;96.90
22035;DHT22;11181;51.002;4.356;2022-08-14T04:53:09;23.00;96.50
22035;DHT22;11181;51.002;4.356;2022-08-14T04:55:37;23.10;96.50
22035;DHT22;11181;51.002;4.356;2022-08-14T04:58:06;23.10;96.50
22035;DHT22;11181;51.002;4.356;2022-08-14T05:00:33;23.10;96.50
22035;DHT22;11181;51.002;4.356;2022-08-14T05:03:00;23.10;96.50
22035;DHT22;11181;51.002;4.356;2022-08-14T05:05:29;23.20;96.50
22035;DHT22;11181;51.002;4.356;2022-08-14T05:07:56;23.20;96.50
22035;DHT22;11181;51.002;4.356;2022-08-14T05:10:31;23.20;96.50
22035;DHT22;11181;51.002;4.356;2022-08-14T05:12:59;23.30;96.40
22035;DHT22;11181;51.002;4.356;2022-08-14T05:15:27;23.20;96.60
22035;DHT22;11181;51.002;4.356;2022-08-14T05:17:55;23.20;96.70
22035;DHT22;11181;51.002;4.356;2022-08-14T05:20:22;23.20;96.90
22035;DHT22;11181;51.002;4.356;2022-08-14T05:22:49;23.20;97.00
22035;DHT22;11181;51.002;4.356;2022-08-14T05:25:16;22.90;98.50
22035;DHT22;11181;51.002;4.356;2022-08-14T05:27:45;22.70;99.10
22035;DHT22;11181;51.002;4.356;2022-08-14T05:30:12;22.50;99.70
22035;DHT22;11181;51.002;4.356;2022-08-14T05:32:41;22.40;99.80
22035;DHT22;11181;51.002;4.356;2022-08-14T05:35:08;22.50;99.90
22035;DHT22;11181;51.002;4.356;2022-08-14T05:37:36;22.40;99.90
22035;DHT22;11181;51.002;4.356;2022-08-14T05:40:05;22.10;99.90
22035;DHT22;11181;51.002;4.356;2022-08-14T05:42:34;22.10;99.90
22035;DHT22;11181;51.002;4.356;2022-08-14T05:45:04;22.10;99.90
22035;DHT22;11181;51.002;4.356;2022-08-14T05:47:37;22.30;99.90
22035;DHT22;11181;51.002;4.356;2022-08-14T05:50:08;22.20;99.90
22035;DHT22;11181;51.002;4.356;2022-08-14T05:52:35;22.20;99.90
22035;DHT22;11181;51.002;4.356;2022-08-14T05:55:03;22.30;99.90
22035;DHT22;11181;51.002;4.356;2022-08-14T05:57:31;22.40;99.90
22035;DHT22;11181;51.002;4.356;2022-08-14T05:59:57;22.60;99.90
22035;DHT22;11181;51.002;4.356;2022-08-14T06:02:24;22.80;99.80
22035;DHT22;11181;51.002;4.356;2022-08-14T06:04:51;22.90;99.20
22035;DHT22;11181;51.002;4.356;2022-08-14T06:07:19;23.10;98.40
22035;DHT22;11181;51.002;4.356;2022-08-14T06:09:46;23.30;97.90
22035;DHT22;11181;51.002;4.356;2022-08-14T06:12:13;23.40;98.60
22035;DHT22;11181;51.002;4.356;2022-08-14T06:14:40;23.50;98.00
22035;DHT22;11181;51.002;4.356;2022-08-14T06:17:07;23.70;97.80
22035;DHT22;11181;51.002;4.356;2022-08-14T06:19:34;23.80;96.90
22035;DHT22;11181;51.002;4.356;2022-08-14T06:22:02;23.90;96.20
22035;DHT22;11181;51.002;4.356;2022-08-14T06:24:30;24.10;96.40
22035;DHT22;11181;51.002;4.356;2022-08-14T06:26:57;24.20;95.60
22035;DHT22;11181;51.002;4.356;2022-08-14T06:29:24;24.30;95.00
22035;DHT22;11181;51.002;4.356;2022-08-14T06:31:51;24.50;94.30
22035;DHT22;11181;51.002;4.356;2022-08-14T06:34:17;24.50;94.50
22035;DHT22;11181;51.002;4.356;2022-08-14T06:36:44;24.70;93.50
22035;DHT22;11181;51.002;4.356;2022-08-14T06:39:11;24.90;92.70
22035;DHT22;11181;51.002;4.356;2022-08-14T06:41:40;24.70;91.50
22035;DHT22;11181;51.002;4.356;2022-08-14T06:44:07;24.70;91.40
22035;DHT22;11181;51.002;4.356;2022-08-14T06:46:34;24.80;90.80
22035;DHT22;11181;51.002;4.356;2022-08-14T06:49:01;24.90;90.50
22035;DHT22;11181;51.002;4.356;2022-08-14T06:51:28;25.00;90.40
22035;DHT22;11181;51.002;4.356;2022-08-14T06:53:55;25.10;90.40
22035;DHT22;11181;51.002;4.356;2022-08-14T06:56:22;25.20;90.20
22035;DHT22;11181;51.002;4.356;2022-08-14T06:58:50;25.30;90.10
22035;DHT22;11181;51.002;4.356;2022-08-14T07:01:17;25.20;90.50
22035;DHT22;11181;51.002;4.356;2022-08-14T07:04:02;25.40;90.10
22035;DHT22;11181;51.002;4.356;2022-08-14T07:06:46;25.60;90.00
22035;DHT22;11181;51.002;4.356;2022-08-14T07:09:14;25.90;88.60
22035;DHT22;11181;51.002;4.356;2022-08-14T07:11:41;26.10;87.60
22035;DHT22;11181;51.002;4.356;2022-08-14T07:14:09;26.30;86.20
22035;DHT22;11181;51.002;4.356;2022-08-14T07:16:36;26.40;84.80
22035;DHT22;11181;51.002;4.356;2022-08-14T07:19:03;26.40;84.00
22035;DHT22;11181;51.002;4.356;2022-08-14T07:21:32;26.60;83.00
22035;DHT22;11181;51.002;4.356;2022-08-14T07:23:59;26.70;82.10
22035;DHT22;11181;51.002;4.356;2022-08-14T07:26:26;27.00;82.30
22035;DHT22;11181;51.002;4.356;2022-08-14T07:28:53;27.20;79.50
22035;DHT22;11181;51.002;4.356;2022-08-14T07:31:21;27.40;79.50
22035;DHT22;11181;51.002;4.356;2022-08-14T07:33:48;27.60;80.20
22035;DHT22;11181;51.002;4.356;2022-08-14T07:36:16;27.80;80.00
22035;DHT22;11181;51.002;4.356;2022-08-14T07:38:43;27.90;79.00
22035;DHT22;11181;51.002;4.356;2022-08-14T07:41:11;27.90;78.10
22035;DHT22;11181;51.002;4.356;2022-08-14T07:43:38;27.90;77.20
22035;DHT22;11181;51.002;4.356;2022-08-14T07:46:06;28.20;78.20
22035;DHT22;11181;51.002;4.356;2022-08-14T07:48:38;28.50;75.30
22035;DHT22;11181;51.002;4.356;2022-08-14T07:51:06;28.60;74.80
22035;DHT22;11181;51.002;4.356;2022-08-14T07:53:33;28.60;74.40
22035;DHT22;11181;51.002;4.356;2022-08-14T07:56:00;28.90;74.90
22035;DHT22;11181;51.002;4.356;2022-08-14T07:58:27;29.20;74.70
22035;DHT22;11181;51.002;4.356;2022-08-14T08:00:56;29.40;72.60
22035;DHT22;11181;51.002;4.356;2022-08-14T08:03:24;29.30;71.90
22035;DHT22;11181;51.002;4.356;2022-08-14T08:05:53;29.50;70.30
22035;DHT22;11181;51.002;4.356;2022-08-14T08:08:20;29.50;71.10
22035;DHT22;11181;51.002;4.356;2022-08-14T08:10:47;29.70;71.10
22035;DHT22;11181;51.002;4.356;2022-08-14T08:13:16;29.80;70.10
22035;DHT22;11181;51.002;4.356;2022-08-14T08:15:45;30.00;69.70
22035;DHT22;11181;51.002;4.356;2022-08-14T08:18:13;30.30;70.00
22035;DHT22;11181;51.002;4.356;2022-08-14T08:20:42;30.50;70.20
22035;DHT22;11181;51.002;4.356;2022-08-14T08:23:14;30.70;68.90
22035;DHT22;11181;51.002;4.356;2022-08-14T08:25:43;31.10;69.10
22035;DHT22;11181;51.002;4.356;2022-08-14T08:28:12;31.50;65.40
22035;DHT22;11181;51.002;4.356;2022-08-14T08:30:48;31.50;67.40
22035;DHT22;11181;51.002;4.356;2022-08-14T08:33:16;31.60;66.50
22035;DHT22;11181;51.002;4.356;2022-08-14T08:35:44;31.70;64.40
22035;DHT22;11181;51.002;4.356;2022-08-14T08:38:15;31.80;64.70
22035;DHT22;11181;51.002;4.356;2022-08-14T08:40:44;32.00;62.60
22035;DHT22;11181;51.002;4.356;2022-08-14T08:43:18;32.20;62.70
22035;DHT22;11181;51.002;4.356;2022-08-14T08:45:52;32.20;63.10
22035;DHT22;11181;51.002;4.356;2022-08-14T08:48:20;32.40;62.60
22035;DHT22;11181;51.002;4.356;2022-08-14T08:50:48;32.40;61.90
22035;DHT22;11181;51.002;4.356;2022-08-14T08:53:16;32.40;61.80
22035;DHT22;11181;51.002;4.356;2022-08-14T08:55:45;32.40;62.60
22035;DHT22;11181;51.002;4.356;2022-08-14T08:58:14;32.30;60.50
22035;DHT22;11181;51.002;4.356;2022-08-14T09:00:45;32.40;61.80
22035;DHT22;11181;51.002;4.356;2022-08-14T09:03:13;32.40;61.80
22035;DHT22;11181;51.002;4.356;2022-08-14T09:05:49;32.50;60.60
22035;DHT22;11181;51.002;4.356;2022-08-14T09:08:19;32.70;59.50
22035;DHT22;11181;51.002;4.356;2022-08-14T09:10:46;32.50;59.00
22035;DHT22;11181;51.002;4.356;2022-08-14T09:13:14;32.40;59.40
22035;DHT22;11181;51.002;4.356;2022-08-14T09:15:42;32.50;59.30
22035;DHT22;11181;51.002;4.356;2022-08-14T09:18:12;32.70;59.60
22035;DHT22;11181;51.002;4.356;2022-08-14T09:20:42;32.90;59.20
22035;DHT22;11181;51.002;4.356;2022-08-14T09:23:10;33.20;59.20
22035;DHT22;11181;51.002;4.356;2022-08-14T09:25:41;33.40;57.40
22035;DHT22;11181;51.002;4.356;2022-08-14T09:28:09;33.50;56.70
22035;DHT22;11181;51.002;4.356;2022-08-14T09:30:39;33.60;56.20
22035;DHT22;11181;51.002;4.356;2022-08-14T09:33:20;33.40;56.70
22035;DHT22;11181;51.002;4.356;2022-08-14T09:36:02;33.60;56.30
22035;DHT22;11181;51.002;4.356;2022-08-14T09:38:50;33.80;56.10
22035;DHT22;11181;51.002;4.356;2022-08-14T09:41:36;34.00;56.60
22035;DHT22;11181;51.002;4.356;2022-08-14T09:44:18;34.00;56.10
22035;DHT22;11181;51.002;4.356;2022-08-14T09:46:51;33.90;55.40
22035;DHT22;11181;51.002;4.356;2022-08-14T09:49:29;34.00;56.00
22035;DHT22;11181;51.002;4.356;2022-08-14T09:52:04;34.30;56.50
22035;DHT22;11181;51.002;4.356;2022-08-14T09:54:36;34.50;56.60
22035;DHT22;11181;51.002;4.356;2022-08-14T09:57:06;34.20;55.50
22035;DHT22;11181;51.002;4.356;2022-08-14T09:59:42;34.10;55.40
22035;DHT22;11181;51.002;4.356;2022-08-14T10:02:19;34.10;54.90
22035;DHT22;11181;51.002;4.356;2022-08-14T10:04:58;34.20;53.70
22035;DHT22;11181;51.002;4.356;2022-08-14T10:07:29;34.20;54.00
22035;DHT22;11181;51.002;4.356;2022-08-14T10:09:56;34.30;55.40
22035;DHT22;11181;51.002;4.356;2022-08-14T10:12:25;34.50;54.90
22035;DHT22;11181;51.002;4.356;2022-08-14T10:14:55;34.70;54.30
22035;DHT22;11181;51.002;4.356;2022-08-14T10:17:22;34.90;53.50
22035;DHT22;11181;51.002;4.356;2022-08-14T10:19:53;35.00;53.70
22035;DHT22;11181;51.002;4.356;2022-08-14T10:22:24;35.10;52.80
22035;DHT22;11181;51.002;4.356;2022-08-14T10:24:55;35.10;53.10
22035;DHT22;11181;51.002;4.356;2022-08-14T10:27:25;35.10;52.70
22035;DHT22;11181;51.002;4.356;2022-08-14T10:29:54;35.20;53.00
22035;DHT22;11181;51.002;4.356;2022-08-14T10:32:21;35.20;52.80
22035;DHT22;11181;51.002;4.356;2022-08-14T10:34:50;35.30;53.00
22035;DHT22;11181;51.002;4.356;2022-08-14T10:37:18;35.10;51.40
22035;DHT22;11181;51.002;4.356;2022-08-14T10:39:57;35.00;52.90
22035;DHT22;11181;51.002;4.356;2022-08-14T10:42:36;34.90;51.70
22035;DHT22;11181;51.002;4.356;2022-08-14T10:45:15;35.00;52.30
22035;DHT22;11181;51.002;4.356;2022-08-14T10:47:46;35.10;51.50
22035;DHT22;11181;51.002;4.356;2022-08-14T10:50:14;35.60;51.20
22035;DHT22;11181;51.002;4.356;2022-08-14T10:52:44;35.80;49.40
22035;DHT22;11181;51.002;4.356;2022-08-14T10:55:13;35.90;50.20
22035;DHT22;11181;51.002;4.356;2022-08-14T10:57:49;35.90;50.80
22035;DHT22;11181;51.002;4.356;2022-08-14T11:00:19;36.10;50.70
22035;DHT22;11181;51.002;4.356;2022-08-14T11:02:57;36.40;50.10
22035;DHT22;11181;51.002;4.356;2022-08-14T11:05:36;36.70;48.40
22035;DHT22;11181;51.002;4.356;2022-08-14T11:08:06;36.80;48.60
22035;DHT22;11181;51.002;4.356;2022-08-14T11:10:40;36.80;48.80
22035;DHT22;11181;51.002;4.356;2022-08-14T11:13:09;36.80;48.20
22035;DHT22;11181;51.002;4.356;2022-08-14T11:15:41;36.60;48.00
22035;DHT22;11181;51.002;4.356;2022-08-14T11:18:10;36.70;47.70
22035;DHT22;11181;51.002;4.356;2022-08-14T11:20:38;36.60;48.80
22035;DHT22;11181;51.002;4.356;2022-08-14T11:23:08;36.90;47.40
22035;DHT22;11181;51.002;4.356;2022-08-14T11:25:37;37.10;47.20
22035;DHT22;11181;51.002;4.356;2022-08-14T11:28:12;37.20;46.60
22035;DHT22;11181;51.002;4.356;2022-08-14T11:30:41;36.30;47.00
22035;DHT22;11181;51.002;4.356;2022-08-14T11:33:09;35.90;47.80
22035;DHT22;11181;51.002;4.356;2022-08-14T11:35:36;35.90;48.20
22035;DHT22;11181;51.002;4.356;2022-08-14T11:38:05;36.30;47.40
22035;DHT22;11181;51.002;4.356;2022-08-14T11:40:35;36.40;46.90
22035;DHT22;11181;51.002;4.356;2022-08-14T11:43:03;36.20;46.90
22035;DHT22;11181;51.002;4.356;2022-08-14T11:45:32;35.80;46.70
22035;DHT22;11181;51.002;4.356;2022-08-14T11:48:01;36.00;47.60
22035;DHT22;11181;51.002;4.356;2022-08-14T11:50:30;36.40;46.60
22035;DHT22;11181;51.002;4.356;2022-08-14T11:52:59;36.40;45.70
22035;DHT22;11181;51.002;4.356;2022-08-14T11:55:32;36.00;45.80
22035;DHT22;11181;51.002;4.356;2022-08-14T11:58:01;36.40;45.50
22035;DHT22;11181;51.002;4.356;2022-08-14T12:00:30;36.90;45.20
22035;DHT22;11181;51.002;4.356;2022-08-14T12:03:00;37.00;44.20
22035;DHT22;11181;51.002;4.356;2022-08-14T12:05:32;37.00;43.80
22035;DHT22;11181;51.002;4.356;2022-08-14T12:08:03;37.00;43.50
22035;DHT22;11181;51.002;4.356;2022-08-14T12:10:34;37.20;44.10
22035;DHT22;11181;51.002;4.356;2022-08-14T12:13:10;37.00;43.50
22035;DHT22;11181;51.002;4.356;2022-08-14T12:15:41;37.10;43.00
22035;DHT22;11181;51.002;4.356;2022-08-14T12:18:08;37.00;42.60
22035;DHT22;11181;51.002;4.356;2022-08-14T12:20:37;37.20;43.50
22035;DHT22;11181;51.002;4.356;2022-08-14T12:23:19;37.30;42.40
22035;DHT22;11181;51.002;4.356;2022-08-14T12:25:46;37.50;42.10
22035;DHT22;11181;51.002;4.356;2022-08-14T12:28:14;37.70;42.30
22035;DHT22;11181;51.002;4.356;2022-08-14T12:30:44;37.70;43.00
22035;DHT22;11181;51.002;4.356;2022-08-14T12:33:21;37.80;42.50
22035;DHT22;11181;51.002;4.356;2022-08-14T12:35:50;37.70;42.20
22035;DHT22;11181;51.002;4.356;2022-08-14T12:38:29;37.20;42.40
22035;DHT22;11181;51.002;4.356;2022-08-14T12:40:56;37.30;43.70
22035;DHT22;11181;51.002;4.356;2022-08-14T12:43:23;37.30;43.40
22035;DHT22;11181;51.002;4.356;2022-08-14T12:45:53;37.50;42.90
22035;DHT22;11181;51.002;4.356;2022-08-14T12:48:21;37.60;42.80
22035;DHT22;11181;51.002;4.356;2022-08-14T12:50:50;37.20;42.30
22035;DHT22;11181;51.002;4.356;2022-08-14T12:53:17;37.40;42.90
22035;DHT22;11181;51.002;4.356;2022-08-14T12:55:45;37.40;42.90
22035;DHT22;11181;51.002;4.356;2022-08-14T12:58:12;37.40;42.10
22035;DHT22;11181;51.002;4.356;2022-08-14T13:00:47;37.40;42.70
22035;DHT22;11181;51.002;4.356;2022-08-14T13:03:23;37.40;42.40
22035;DHT22;11181;51.002;4.356;2022-08-14T13:05:51;37.30;42.40
22035;DHT22;11181;51.002;4.356;2022-08-14T13:08:18;37.60;42.10
22035;DHT22;11181;51.002;4.356;2022-08-14T13:10:48;37.90;41.40
22035;DHT22;11181;51.002;4.356;2022-08-14T13:13:16;38.40;40.80
22035;DHT22;11181;51.002;4.356;2022-08-14T13:15:44;38.60;40.30
22035;DHT22;11181;51.002;4.356;2022-08-14T13:18:14;38.10;39.50
22035;DHT22;11181;51.002;4.356;2022-08-14T13:20:43;37.90;39.40
22035;DHT22;11181;51.002;4.356;2022-08-14T13:23:11;37.90;38.70
22035;DHT22;11181;51.002;4.356;2022-08-14T13:25:43;37.70;39.10
22035;DHT22;11181;51.002;4.356;2022-08-14T13:28:10;38.00;39.10
22035;DHT22;11181;51.002;4.356;2022-08-14T13:30:39;38.10;38.70
22035;DHT22;11181;51.002;4.356;2022-08-14T13:33:09;38.20;38.80
22035;DHT22;11181;51.002;4.356;2022-08-14T13:35:36;38.20;39.70
22035;DHT22;11181;51.002;4.356;2022-08-14T13:38:05;37.70;39.50
22035;DHT22;11181;51.002;4.356;2022-08-14T13:40:32;37.80;39.70
22035;DHT22;11181;51.002;4.356;2022-08-14T13:42:59;38.20;39.70
22035;DHT22;11181;51.002;4.356;2022-08-14T13:45:26;38.10;39.70
22035;DHT22;11181;51.002;4.356;2022-08-14T13:47:53;38.20;39.40
22035;DHT22;11181;51.002;4.356;2022-08-14T13:50:20;38.00;39.40
22035;DHT22;11181;51.002;4.356;2022-08-14T13:52:50;37.60;39.80
22035;DHT22;11181;51.002;4.356;2022-08-14T13:55:21;37.80;39.90
22035;DHT22;11181;51.002;4.356;2022-08-14T13:57:49;37.50;40.20
22035;DHT22;11181;51.002;4.356;2022-08-14T14:00:17;37.40;40.10
22035;DHT22;11181;51.002;4.356;2022-08-14T14:02:45;37.60;40.10
22035;DHT22;11181;51.002;4.356;2022-08-14T14:05:14;37.40;40.40
22035;DHT22;11181;51.002;4.356;2022-08-14T14:07:45;37.50;40.10
22035;DHT22;11181;51.002;4.356;2022-08-14T14:10:14;37.50;40.10
22035;DHT22;11181;51.002;4.356;2022-08-14T14:12:44;37.60;40.00
22035;DHT22;11181;51.002;4.356;2022-08-14T14:15:13;38.10;40.60
22035;DHT22;11181;51.002;4.356;2022-08-14T14:17:41;38.10;40.20
22035;DHT22;11181;51.002;4.356;2022-08-14T14:20:10;37.90;39.80
22035;DHT22;11181;51.002;4.356;2022-08-14T14:22:39;37.80;40.30
22035;DHT22;11181;51.002;4.356;2022-08-14T14:25:08;38.00;41.10
22035;DHT22;11181;51.002;4.356;2022-08-14T14:27:35;37.90;40.20
22035;DHT22;11181;51.002;4.356;2022-08-14T14:30:05;38.00;40.10
22035;DHT22;11181;51.002;4.356;2022-08-14T14:32:33;37.80;40.00
22035;DHT22;11181;51.002;4.356;2022-08-14T14:35:10;37.90;40.50
22035;DHT22;11181;51.002;4.356;2022-08-14T14:37:38;37.50;40.20
22035;DHT22;11181;51.002;4.356;2022-08-14T14:40:06;37.60;41.00
22035;DHT22;11181;51.002;4.356;2022-08-14T14:42:34;37.60;40.70
22035;DHT22;11181;51.002;4.356;2022-08-14T14:45:09;37.60;40.30
22035;DHT22;11181;51.002;4.356;2022-08-14T14:47:39;37.70;40.40
22035;DHT22;11181;51.002;4.356;2022-08-14T14:50:08;37.70;41.10
22035;DHT22;11181;51.002;4.356;2022-08-14T14:52:37;37.80;41.30
22035;DHT22;11181;51.002;4.356;2022-08-14T14:55:06;37.70;40.30
22035;DHT22;11181;51.002;4.356;2022-08-14T14:57:33;37.70;40.80
22035;DHT22;11181;51.002;4.356;2022-08-14T15:00:01;37.80;41.40
22035;DHT22;11181;51.002;4.356;2022-08-14T15:02:34;37.80;41.50
22035;DHT22;11181;51.002;4.356;2022-08-14T15:05:03;37.50;41.10
22035;DHT22;11181;51.002;4.356;2022-08-14T15:07:32;37.30;41.40
22035;DHT22;11181;51.002;4.356;2022-08-14T15:09:59;37.30;41.60
22035;DHT22;11181;51.002;4.356;2022-08-14T15:12:26;37.10;41.80
22035;DHT22;11181;51.002;4.356;2022-08-14T15:14:54;37.10;41.70
22035;DHT22;11181;51.002;4.356;2022-08-14T15:17:21;37.20;41.80
22035;DHT22;11181;51.002;4.356;2022-08-14T15:19:49;37.20;41.60
22035;DHT22;11181;51.002;4.356;2022-08-14T15:22:16;37.20;41.90
22035;DHT22;11181;51.002;4.356;2022-08-14T15:24:45;37.10;41.70
22035;DHT22;11181;51.002;4.356;2022-08-14T15:27:11;37.20;42.20
22035;DHT22;11181;51.002;4.356;2022-08-14T15:29:38;37.20;40.90
22035;DHT22;11181;51.002;4.356;2022-08-14T15:32:07;37.20;41.60
22035;DHT22;11181;51.002;4.356;2022-08-14T15:34:34;37.20;41.50
22035;DHT22;11181;51.002;4.356;2022-08-14T15:37:04;37.10;41.60
22035;DHT22;11181;51.002;4.356;2022-08-14T15:39:32;36.90;41.70
22035;DHT22;11181;51.002;4.356;2022-08-14T15:41:59;36.80;41.40
22035;DHT22;11181;51.002;4.356;2022-08-14T15:44:28;36.60;41.90